Time;durP1;ratioP1;P1;durP2;ratioP2;P2;SDS_P1;SDS_P2;PMS_P1;PMS_P2;Temp;Humidity;BMP_temperature;BMP_pressure;BME280_temperature;BME280_humidity;BME280_pressure;Samples;Min_cycle;Max_cycle;Signal;HPM_P1;HPM_P2
2021/04/27 00:05:53;;;;;;;5.30;1.70;;;;;;;6.71;40.21;99730.75;20746315;28;20520;-71
2021/04/27 00:15:55;;;;;;;5.72;1.65;;;;;;;6.64;40.76;99725.03;20732768;28;20054;-73
2021/04/27 00:25:56;;;;;;;5.07;1.70;;;;;;;6.54;41.42;99723.78;20737463;28;20100;-73
2021/04/27 00:35:57;;;;;;;5.50;1.50;;;;;;;6.37;42.26;99713.34;20743842;28;20046;-73
2021/04/27 00:45:58;;;;;;;5.88;2.10;;;;;;;6.19;43.17;99701.25;20742810;28;20116;-73
2021/04/27 00:55:59;;;;;;;2.78;1.48;;;;;;;6.09;43.33;99694.81;20741706;28;20050;-73
2021/04/27 01:06:00;;;;;;;4.88;1.90;;;;;;;5.97;44.48;99697.06;20740904;28;20042;-73
2021/04/27 01:16:02;;;;;;;5.05;1.90;;;;;;;6.01;44.63;99677.81;20723064;28;20085;-73
2021/04/27 01:26:34;;;;;;;7.75;2.30;;;;;;;5.87;45.58;99669.84;20739481;28;20050;-73
2021/04/27 01:36:35;;;;;;;6.75;2.05;;;;;;;5.91;45.95;99675.72;20711346;28;20066;-73
2021/04/27 01:46:37;;;;;;;7.75;2.25;;;;;;;5.82;46.17;99670.94;20738670;28;20046;-74
2021/04/27 01:56:38;;;;;;;5.60;2.13;;;;;;;5.77;46.70;99657.31;20739165;28;20054;-73
2021/04/27 02:06:39;;;;;;;4.97;2.40;;;;;;;5.85;46.45;99658.63;20736476;28;20046;-72
2021/04/27 02:17:00;;;;;;;4.50;2.28;;;;;;;5.82;47.06;99655.34;20736794;28;20128;-72
2021/04/27 02:27:02;;;;;;;6.88;2.30;;;;;;;5.80;47.42;99655.41;20749699;28;20050;-72
2021/04/27 02:37:04;;;;;;;4.03;1.88;;;;;;;5.67;47.79;99653.47;20745306;28;20060;-73
2021/04/27 02:47:05;;;;;;;5.07;2.03;;;;;;;5.69;48.05;99644.69;20763377;28;20052;-73
2021/04/27 02:57:06;;;;;;;7.38;2.63;;;;;;;5.49;49.30;99652.53;20762166;28;20054;-73
2021/04/27 03:07:07;;;;;;;6.53;2.50;;;;;;;5.40;49.65;99647.78;20762285;28;20544;-73
2021/04/27 03:17:08;;;;;;;5.13;2.22;;;;;;;5.28;49.96;99637.97;20761989;28;20484;-72
2021/04/27 03:27:09;;;;;;;3.97;1.95;;;;;;;5.18;50.00;99639.28;20761504;28;20137;-73
2021/04/27 03:37:10;;;;;;;7.57;2.40;;;;;;;5.21;50.07;99645.16;20756776;28;20048;-73
2021/04/27 03:47:11;;;;;;;6.60;2.25;;;;;;;5.13;50.09;99645.50;20747531;28;20049;-73
2021/04/27 03:57:13;;;;;;;9.38;2.78;;;;;;;5.09;50.13;99646.53;20746701;28;20046;-73
2021/04/27 04:07:14;;;;;;;6.05;1.98;;;;;;;4.99;50.66;99632.28;20745440;28;20087;-73
2021/04/27 04:17:14;;;;;;;4.80;2.08;;;;;;;5.12;50.42;99643.84;20745991;28;20042;-73
2021/04/27 04:27:16;;;;;;;7.05;2.28;;;;;;;4.96;50.69;99642.81;20746803;28;20050;-73
2021/04/27 04:37:17;;;;;;;7.72;2.80;;;;;;;5.02;50.56;99642.56;20742715;28;20486;-73
2021/04/27 04:47:19;;;;;;;6.93;2.45;;;;;;;5.23;50.09;99661.53;20742375;28;20439;-73
2021/04/27 04:57:20;;;;;;;5.30;2.28;;;;;;;5.32;49.41;99642.09;20742293;28;20057;-73
2021/04/27 05:07:23;;;;;;;7.30;2.50;;;;;;;5.40;49.05;99642.59;20723204;28;20045;-73
2021/04/27 05:17:24;;;;;;;7.95;2.95;;;;;;;5.47;49.72;99647.44;20740875;28;20077;-72
2021/04/27 05:27:26;;;;;;;9.40;2.30;;;;;;;5.63;48.96;99657.13;20736371;28;20112;-72
2021/04/27 05:37:26;;;;;;;5.50;2.20;;;;;;;5.60;48.95;99658.94;20737452;28;20037;-72
2021/04/27 05:47:28;;;;;;;9.95;2.42;;;;;;;5.84;48.06;99662.13;20738675;28;20054;-72
2021/04/27 05:57:29;;;;;;;5.10;2.00;;;;;;;5.83;48.23;99657.88;20737494;28;20517;-72
2021/04/27 06:07:30;;;;;;;8.60;2.35;;;;;;;6.13;46.98;99659.97;20736357;28;20432;-72
2021/04/27 06:17:34;;;;;;;6.38;2.28;;;;;;;6.18;46.74;99664.03;20736821;28;20057;-72
2021/04/27 06:27:36;;;;;;;9.40;2.22;;;;;;;6.29;46.39;99655.72;20738404;28;20046;-71
2021/04/27 06:37:37;;;;;;;12.07;2.50;;;;;;;6.54;46.48;99650.16;20717610;28;20104;-71
2021/04/27 06:47:39;;;;;;;9.25;2.72;;;;;;;6.68;45.22;99660.69;20736017;28;20057;-71
2021/04/27 06:57:40;;;;;;;9.45;2.60;;;;;;;6.74;45.40;99648.25;20735226;28;20085;-71
2021/04/27 07:07:41;;;;;;;6.72;2.72;;;;;;;6.98;44.90;99645.28;20713060;28;20080;-72
2021/04/27 07:17:43;;;;;;;9.90;2.95;;;;;;;7.34;44.62;99659.00;20748905;28;20046;-71
2021/04/27 07:27:45;;;;;;;6.55;2.38;;;;;;;7.64;44.05;99648.69;20751294;28;20042;-70
2021/04/27 07:37:46;;;;;;;6.47;2.70;;;;;;;8.18;43.55;99653.47;20749910;28;20049;-69
2021/04/27 07:47:48;;;;;;;6.20;2.75;;;;;;;8.10;43.05;99641.78;20751084;28;20045;-69
2021/04/27 07:57:50;;;;;;;5.78;2.63;;;;;;;8.56;42.89;99640.88;20746142;28;20137;-70
2021/04/27 08:07:51;;;;;;;17.05;3.17;;;;;;;8.63;42.59;99649.22;20746673;28;20049;-68
2021/04/27 08:17:53;;;;;;;7.60;3.22;;;;;;;9.06;42.09;99633.59;20746561;28;20130;-69
2021/04/27 08:27:55;;;;;;;9.50;3.10;;;;;;;9.27;41.27;99624.47;20728298;28;20050;-70
2021/04/27 08:37:56;;;;;;;11.95;3.30;;;;;;;9.33;41.59;99624.94;20744565;28;20046;-71
2021/04/27 08:47:57;;;;;;;7.05;3.20;;;;;;;9.89;41.80;99612.69;20744742;28;20050;-70
2021/04/27 08:57:59;;;;;;;6.90;3.22;;;;;;;10.24;39.73;99613.91;20743513;28;20054;-68
2021/04/27 09:08:01;;;;;;;7.88;3.70;;;;;;;10.58;39.71;99602.03;20742241;28;20467;-68
2021/04/27 09:18:32;;;;;;;10.18;3.88;;;;;;;10.77;39.32;99587.72;20681229;28;20534;-69
2021/04/27 09:28:35;;;;;;;9.80;4.15;;;;;;;11.22;39.06;99578.50;20738966;28;20410;-70
2021/04/27 09:38:36;;;;;;;9.00;4.30;;;;;;;11.50;37.73;99567.72;20735712;28;20038;-71
2021/04/27 09:48:46;;;;;;;13.05;4.30;;;;;;;11.54;38.37;99575.25;20682833;28;20066;-68
2021/04/27 09:59:21;;;;;;;11.98;4.75;;;;;;;12.15;38.32;99546.38;20738640;28;20132;-68
2021/04/27 10:09:23;;;;;;;12.77;4.57;;;;;;;11.88;36.84;99544.88;20737426;28;20050;-68
2021/04/27 10:19:24;;;;;;;9.55;4.90;;;;;;;12.40;36.55;99525.22;20737710;28;20133;-68
2021/04/27 10:29:26;;;;;;;12.05;5.75;;;;;;;12.90;36.26;99508.22;20722750;28;20100;-69
2021/04/27 10:39:41;;;;;;;9.70;4.78;;;;;;;13.15;35.46;99497.50;20718442;28;20070;-68
2021/04/27 10:49:44;;;;;;;8.30;5.23;;;;;;;13.37;35.16;99485.25;20725667;28;20085;-69
2021/04/27 10:59:59;;;;;;;11.63;5.85;;;;;;;13.68;34.55;99480.03;20736386;28;20088;-69
2021/04/27 11:10:00;;;;;;;12.85;5.90;;;;;;;13.65;34.77;99459.25;20751045;28;20324;-69
2021/04/27 11:20:46;;;;;;;12.55;4.70;;;;;;;14.06;33.30;99447.09;20754023;28;20053;-69
2021/04/27 11:30:47;;;;;;;11.05;5.35;;;;;;;14.30;30.78;99444.19;20733738;28;20045;-71
2021/04/27 11:40:48;;;;;;;10.40;5.32;;;;;;;14.26;32.60;99427.84;20750143;28;20540;-69
2021/04/27 11:50:50;;;;;;;11.52;5.32;;;;;;;14.69;31.41;99425.00;20731611;28;20058;-69
2021/04/27 12:00:55;;;;;;;12.82;5.22;;;;;;;14.89;29.72;99410.09;20746044;28;20121;-69
2021/04/27 12:11:48;;;;;;;12.23;5.00;;;;;;;15.01;27.93;99402.91;20747385;28;20045;-70
2021/04/27 12:22:05;;;;;;;9.75;4.85;;;;;;;14.92;27.35;99394.03;20698892;28;20079;-69
2021/04/27 12:32:18;;;;;;;10.65;4.55;;;;;;;15.06;27.98;99367.28;20747924;28;20513;-69
2021/04/27 12:42:25;;;;;;;11.15;5.03;;;;;;;15.70;27.83;99357.03;20745774;28;20084;-70
2021/04/27 12:52:27;;;;;;;12.57;5.40;;;;;;;15.92;27.65;99341.84;20743815;28;20050;-70
2021/04/27 13:02:28;;;;;;;11.98;5.18;;;;;;;15.59;27.69;99324.72;20743380;28;20454;-70
2021/04/27 13:12:31;;;;;;;10.48;4.20;;;;;;;15.63;24.62;99320.81;20714866;28;20065;-69
2021/04/27 13:22:35;;;;;;;8.23;4.18;;;;;;;15.74;24.41;99292.47;20722184;28;20050;-69
2021/04/27 13:32:49;;;;;;;7.88;5.13;;;;;;;16.01;26.13;99289.03;20729210;28;20042;-69
2021/04/27 13:42:54;;;;;;;10.77;5.05;;;;;;;16.40;25.77;99279.16;20728614;28;20544;-68
2021/04/27 13:52:56;;;;;;;9.20;4.87;;;;;;;16.12;27.59;99269.53;20715169;28;20096;-69
2021/04/27 14:02:57;;;;;;;9.75;5.38;;;;;;;16.36;25.28;99255.78;20723002;28;20046;-70
2021/04/27 14:13:00;;;;;;;17.90;5.22;;;;;;;16.34;27.69;99245.41;20738624;28;20050;-70
2021/04/27 14:23:03;;;;;;;9.13;4.07;;;;;;;16.18;26.13;99238.13;20739089;28;20046;-69
2021/04/27 14:33:04;;;;;;;9.25;3.97;;;;;;;16.33;23.98;99219.13;20719791;28;20049;-69
2021/04/27 14:43:07;;;;;;;7.90;4.45;;;;;;;16.30;24.35;99208.88;20729259;28;20053;-70
2021/04/27 14:53:08;;;;;;;8.20;5.07;;;;;;;16.64;23.64;99209.91;20729627;28;20046;-69
2021/04/27 15:03:09;;;;;;;8.75;4.43;;;;;;;16.76;22.63;99206.03;20711571;28;20065;-69
2021/04/27 15:13:10;;;;;;;9.95;4.32;;;;;;;16.71;22.12;99194.28;20727471;28;20054;-70
2021/04/27 15:23:11;;;;;;;12.50;4.57;;;;;;;16.67;26.01;99180.53;20717111;28;20050;-69
2021/04/27 15:33:12;;;;;;;12.57;5.05;;;;;;;16.96;23.39;99175.84;20738117;28;20042;-69
2021/04/27 15:43:13;;;;;;;9.48;4.68;;;;;;;16.82;23.40;99168.44;20748953;28;20053;-69
2021/04/27 15:53:14;;;;;;;11.55;5.32;;;;;;;16.80;22.83;99165.13;20749189;28;20131;-69
2021/04/27 16:03:15;;;;;;;12.13;5.45;;;;;;;16.97;23.97;99148.41;20747029;28;20046;-70
2021/04/27 16:13:16;;;;;;;9.85;4.80;;;;;;;17.07;22.69;99146.50;20747807;28;20068;-70
2021/04/27 16:23:17;;;;;;;10.25;5.20;;;;;;;17.03;23.56;99134.56;20746322;28;20132;-69
2021/04/27 16:33:18;;;;;;;11.07;6.00;;;;;;;17.12;23.22;99126.72;20748745;28;20521;-68
2021/04/27 16:43:20;;;;;;;10.10;5.32;;;;;;;17.23;23.96;99129.06;20745487;28;20109;-69
2021/04/27 16:53:21;;;;;;;14.13;6.35;;;;;;;17.21;22.54;99125.78;20745831;28;20054;-69
2021/04/27 17:03:22;;;;;;;15.60;6.25;;;;;;;17.16;23.05;99120.13;20743408;28;20050;-67
2021/04/27 17:13:23;;;;;;;11.10;6.05;;;;;;;16.98;25.17;99118.34;20744380;28;20060;-68
2021/04/27 17:23:25;;;;;;;11.43;6.60;;;;;;;16.97;25.21;99110.56;20750232;28;20489;-69
2021/04/27 17:33:26;;;;;;;10.77;5.90;;;;;;;16.82;25.92;99110.28;20727328;28;20050;-69
2021/04/27 17:43:27;;;;;;;12.20;6.45;;;;;;;16.62;26.33;99100.91;20741096;28;20080;-71
2021/04/27 17:53:30;;;;;;;9.93;5.47;;;;;;;16.25;27.29;99111.63;20729217;28;20457;-70
2021/04/27 18:03:31;;;;;;;11.80;5.57;;;;;;;16.01;28.14;99114.00;20659359;28;20053;-69
2021/04/27 18:13:33;;;;;;;12.52;5.40;;;;;;;15.44;29.17;99107.22;20683812;28;20046;-69
2021/04/27 18:23:34;;;;;;;14.20;6.38;;;;;;;15.08;31.30;99114.13;20738867;28;20053;-69
2021/04/27 18:33:36;;;;;;;13.75;5.65;;;;;;;14.68;32.07;99117.78;20745756;28;20084;-69
2021/04/27 18:43:37;;;;;;;12.38;5.63;;;;;;;14.40;33.09;99122.13;20749722;28;20053;-70
2021/04/27 18:53:39;;;;;;;14.73;4.88;;;;;;;13.81;34.39;99118.69;20746722;28;20137;-69
2021/04/27 19:03:41;;;;;;;8.55;4.53;;;;;;;13.18;36.68;99133.81;20740192;28;20050;-68
2021/04/27 19:13:42;;;;;;;11.80;4.97;;;;;;;12.95;37.38;99138.38;20750506;28;20081;-69
2021/04/27 19:23:44;;;;;;;11.07;5.15;;;;;;;12.47;38.60;99142.41;20734342;28;20046;-68
2021/04/27 19:33:45;;;;;;;14.50;6.18;;;;;;;12.18;39.18;99142.19;20750417;28;20045;-69
2021/04/27 19:43:47;;;;;;;16.58;6.38;;;;;;;12.15;39.21;99140.63;20750871;28;20057;-69
2021/04/27 19:53:48;;;;;;;11.57;5.82;;;;;;;11.88;40.26;99141.06;20741995;28;20053;-68
2021/04/27 20:03:49;;;;;;;12.32;6.70;;;;;;;11.66;40.92;99148.91;20748132;28;20053;-69
2021/04/27 20:13:50;;;;;;;14.43;7.25;;;;;;;11.42;41.34;99142.97;20749421;28;20058;-69
2021/04/27 20:23:51;;;;;;;14.32;7.03;;;;;;;11.26;41.53;99147.72;20745888;28;20465;-69
2021/04/27 20:33:52;;;;;;;18.75;8.60;;;;;;;11.21;41.34;99147.25;20786177;28;20099;-69
2021/04/27 20:43:53;;;;;;;11.85;6.80;;;;;;;10.99;42.62;99146.25;20810621;28;20045;-69
2021/04/27 20:53:55;;;;;;;14.82;7.20;;;;;;;10.80;42.43;99151.22;20759868;28;20054;-69
2021/04/27 21:03:56;;;;;;;13.23;6.82;;;;;;;10.70;42.91;99156.31;20724396;28;20072;-68
2021/04/27 21:13:57;;;;;;;14.57;7.28;;;;;;;10.62;43.18;99163.03;20728181;28;20073;-69
2021/04/27 21:23:58;;;;;;;16.95;7.32;;;;;;;10.31;44.45;99163.66;20744862;28;20057;-72
2021/04/27 21:33:59;;;;;;;12.63;7.13;;;;;;;10.09;45.01;99162.56;20745536;28;20398;-73
2021/04/27 21:44:00;;;;;;;17.02;7.88;;;;;;;9.78;45.70;99161.28;20741167;28;20498;-73
2021/04/27 21:54:02;;;;;;;11.70;6.60;;;;;;;9.50;46.74;99166.75;20740601;28;20050;-73
2021/04/27 22:04:03;;;;;;;14.18;7.03;;;;;;;9.43;46.36;99166.38;20717258;28;20425;-73
2021/04/27 22:14:05;;;;;;;11.90;6.78;;;;;;;9.15;47.59;99161.34;20737677;28;20045;-73
2021/04/27 22:24:08;;;;;;;11.98;6.20;;;;;;;8.92;47.80;99160.31;20720873;28;20056;-74
2021/04/27 22:34:09;;;;;;;12.88;6.05;;;;;;;8.77;48.71;99150.06;20739408;28;20046;-73
2021/04/27 22:44:10;;;;;;;14.05;6.88;;;;;;;8.66;48.55;99148.19;20743591;28;20046;-74
2021/04/27 22:54:11;;;;;;;19.35;6.07;;;;;;;8.49;49.08;99148.44;20753273;28;20046;-74
2021/04/27 23:04:12;;;;;;;13.32;6.53;;;;;;;8.50;48.58;99156.16;20752673;28;20490;-74
2021/04/27 23:14:13;;;;;;;11.70;6.32;;;;;;;8.25;50.19;99148.25;20770728;23;20057;-73
2021/04/27 23:24:14;;;;;;;11.98;5.50;;;;;;;8.06;49.49;99143.38;20798791;28;20058;-72
2021/04/27 23:34:15;;;;;;;10.98;5.78;;;;;;;8.03;49.68;99137.53;20731711;28;20065;-73
2021/04/27 23:44:17;;;;;;;12.90;5.63;;;;;;;7.89;50.00;99141.00;20733329;28;20088;-73
2021/04/27 23:54:18;;;;;;;14.65;5.57;;;;;;;7.97;49.30;99123.13;20771500;28;20496;-73
